createdAt,value
2023-04-16T00:02:08.116Z,9.40
2023-04-16T00:04:35.318Z,9.63
2023-04-16T00:07:02.301Z,10.07
2023-04-16T00:09:29.268Z,8.85
2023-04-16T00:11:56.363Z,10.77
2023-04-16T00:14:23.329Z,10.50
2023-04-16T00:16:50.480Z,9.68
2023-04-16T00:19:17.466Z,10.93
2023-04-16T00:21:44.671Z,9.70
2023-04-16T00:24:11.608Z,10.35
2023-04-16T00:26:38.524Z,10.13
2023-04-16T00:29:05.959Z,11.65
2023-04-16T00:31:34.103Z,9.40
2023-04-16T00:34:03.932Z,11.20
2023-04-16T00:36:30.959Z,11.35
2023-04-16T00:38:58.013Z,11.02
2023-04-16T00:41:25.050Z,10.45
2023-04-16T00:43:52.330Z,12.65
2023-04-16T00:46:21.267Z,11.10
2023-04-16T00:48:49.409Z,11.32
2023-04-16T00:51:18.272Z,10.45
2023-04-16T00:53:46.637Z,12.00
2023-04-16T00:56:13.734Z,11.93
2023-04-16T00:58:40.891Z,11.23
2023-04-16T01:01:07.938Z,12.48
2023-04-16T01:03:46.799Z,12.77
2023-04-16T01:06:14.800Z,11.23
2023-04-16T01:08:41.805Z,12.55
2023-04-16T01:11:10.947Z,13.27
2023-04-16T01:13:41.318Z,14.07
2023-04-16T01:16:10.691Z,13.98
2023-04-16T01:18:38.979Z,14.25
2023-04-16T01:21:06.602Z,12.52
2023-04-16T01:23:34.957Z,11.93
2023-04-16T01:26:02.736Z,13.50
2023-04-16T01:28:29.828Z,13.80
2023-04-16T01:30:56.918Z,15.27
2023-04-16T01:33:44.360Z,13.40
2023-04-16T01:36:12.577Z,13.68
2023-04-16T01:38:39.550Z,15.65
2023-04-16T01:41:06.521Z,14.05
2023-04-16T01:43:33.516Z,14.32
2023-04-16T01:46:24.410Z,13.15
2023-04-16T01:48:54.696Z,15.85
2023-04-16T01:51:22.127Z,15.88
2023-04-16T01:53:50.471Z,15.73
2023-04-16T01:56:17.510Z,18.35
2023-04-16T01:58:46.499Z,15.30
2023-04-16T02:01:15.374Z,15.93
2023-04-16T02:03:43.038Z,16.55
2023-04-16T02:06:10.106Z,16.17
2023-04-16T02:08:37.186Z,15.57
2023-04-16T02:11:04.090Z,15.63
2023-04-16T02:13:31.089Z,14.52
2023-04-16T02:15:58.371Z,16.60
2023-04-16T02:18:37.315Z,15.20
2023-04-16T02:21:06.525Z,17.58
2023-04-16T02:23:34.412Z,18.40
2023-04-16T02:26:03.620Z,18.75
2023-04-16T02:28:30.954Z,17.20
2023-04-16T02:30:59.132Z,18.10
2023-04-16T02:33:28.785Z,18.13
2023-04-16T02:36:02.097Z,18.77
2023-04-16T02:38:29.136Z,19.10
2023-04-16T02:40:56.220Z,17.05
2023-04-16T02:43:23.221Z,19.25
2023-04-16T02:45:50.150Z,16.42
2023-04-16T02:48:17.311Z,18.50
2023-04-16T02:50:44.271Z,20.17
2023-04-16T02:53:11.522Z,18.60
2023-04-16T02:55:38.584Z,18.75
2023-04-16T02:58:05.454Z,19.63
2023-04-16T03:00:32.538Z,19.67
2023-04-16T03:02:59.648Z,17.38
2023-04-16T03:05:26.712Z,20.48
2023-04-16T03:07:56.652Z,21.38
2023-04-16T03:10:24.251Z,19.60
2023-04-16T03:12:51.444Z,19.73
2023-04-16T03:15:18.562Z,19.08
2023-04-16T03:17:45.668Z,17.98
2023-04-16T03:20:14.403Z,19.48
2023-04-16T03:22:41.775Z,21.45
2023-04-16T03:25:09.502Z,20.95
2023-04-16T03:27:36.490Z,19.73
2023-04-16T03:30:04.791Z,19.70
2023-04-16T03:32:33.885Z,19.83
2023-04-16T03:35:03.669Z,19.83
2023-04-16T03:37:30.775Z,20.40
2023-04-16T03:39:57.986Z,20.48
2023-04-16T03:42:25.011Z,20.17
2023-04-16T03:44:53.670Z,21.02
2023-04-16T03:47:22.094Z,20.50
2023-04-16T03:49:51.023Z,22.77
2023-04-16T03:52:18.865Z,20.55
2023-04-16T03:54:45.855Z,20.65
2023-04-16T03:57:39.081Z,20.38
2023-04-16T04:00:11.445Z,22.98
2023-04-16T04:02:41.559Z,19.90
2023-04-16T04:05:15.207Z,21.05
2023-04-16T04:07:43.399Z,22.15
2023-04-16T04:10:10.679Z,21.10
2023-04-16T04:12:40.939Z,23.10
2023-04-16T04:15:08.882Z,25.08
2023-04-16T04:17:35.931Z,21.65
2023-04-16T04:20:03.147Z,22.67
2023-04-16T04:22:31.663Z,24.85
2023-04-16T04:24:58.926Z,22.88
2023-04-16T04:27:28.364Z,24.75
2023-04-16T04:29:56.435Z,24.02
2023-04-16T04:32:23.593Z,23.63
2023-04-16T04:34:50.679Z,22.15
2023-04-16T04:37:17.733Z,20.75
2023-04-16T04:39:44.799Z,22.15
2023-04-16T04:42:12.747Z,24.50
2023-04-16T04:44:40.278Z,21.17
2023-04-16T04:47:08.525Z,23.42
2023-04-16T04:49:35.463Z,22.92
2023-04-16T04:52:03.399Z,23.70
2023-04-16T04:54:32.967Z,22.45
2023-04-16T04:57:01.272Z,19.77
2023-04-16T04:59:29.789Z,22.02
2023-04-16T05:01:57.144Z,22.45
2023-04-16T05:04:24.088Z,21.13
2023-04-16T05:06:51.057Z,23.63
2023-04-16T05:09:18.130Z,21.67
2023-04-16T05:11:45.058Z,22.75
2023-04-16T05:14:12.049Z,24.38
2023-04-16T05:16:39.088Z,23.48
2023-04-16T05:19:06.140Z,24.55
2023-04-16T05:21:33.802Z,21.80
2023-04-16T05:24:00.873Z,23.70
2023-04-16T05:26:27.811Z,21.15
2023-04-16T05:28:54.758Z,23.00
2023-04-16T05:31:21.957Z,22.98
2023-04-16T05:33:48.967Z,23.42
2023-04-16T05:36:15.914Z,23.95
2023-04-16T05:38:42.858Z,23.45
2023-04-16T05:41:09.763Z,23.00
2023-04-16T05:43:36.724Z,22.35
2023-04-16T05:46:03.696Z,21.83
2023-04-16T05:48:31.112Z,25.80
2023-04-16T05:50:58.041Z,27.00
2023-04-16T05:53:25.085Z,22.98
2023-04-16T05:55:52.064Z,22.80
2023-04-16T05:58:19.004Z,23.38
2023-04-16T06:00:45.955Z,23.08
2023-04-16T06:03:13.088Z,23.45
2023-04-16T06:05:40.418Z,24.23
2023-04-16T06:08:07.396Z,24.42
2023-04-16T06:10:34.350Z,23.35
2023-04-16T06:13:01.304Z,25.25
2023-04-16T06:15:28.336Z,23.75
2023-04-16T06:17:56.173Z,24.85
2023-04-16T06:20:23.140Z,22.50
2023-04-16T06:22:50.233Z,22.63
2023-04-16T06:25:18.192Z,23.13
2023-04-16T06:27:45.365Z,21.88
2023-04-16T06:30:16.478Z,21.55
2023-04-16T06:32:44.354Z,22.95
2023-04-16T06:35:11.620Z,23.35
2023-04-16T06:37:39.070Z,21.30
2023-04-16T06:40:06.780Z,23.30
2023-04-16T06:42:33.756Z,22.85
2023-04-16T06:45:00.736Z,24.05
2023-04-16T06:47:27.743Z,22.80
2023-04-16T06:49:54.679Z,23.35
2023-04-16T06:52:21.657Z,24.88
2023-04-16T06:54:48.862Z,27.70
2023-04-16T06:57:16.308Z,23.52
2023-04-16T06:59:43.365Z,22.52
2023-04-16T07:02:13.176Z,25.58
2023-04-16T07:04:40.192Z,24.40
2023-04-16T07:07:07.195Z,23.67
2023-04-16T07:09:34.142Z,23.98
2023-04-16T07:12:01.223Z,25.70
2023-04-16T07:14:28.184Z,24.70
2023-04-16T07:16:55.182Z,25.77
2023-04-16T07:19:22.245Z,24.23
2023-04-16T07:21:49.267Z,24.67
2023-04-16T07:24:16.530Z,23.65
2023-04-16T07:26:43.519Z,23.63
2023-04-16T07:29:10.731Z,25.05
2023-04-16T07:31:38.718Z,25.20
2023-04-16T07:34:05.791Z,25.73
2023-04-16T07:36:32.896Z,23.95
2023-04-16T07:38:59.862Z,26.02
2023-04-16T07:41:26.811Z,24.38
2023-04-16T07:43:53.778Z,23.92
2023-04-16T07:46:21.163Z,22.38
2023-04-16T07:48:49.073Z,25.95
2023-04-16T07:51:16.337Z,23.63
2023-04-16T07:53:43.630Z,24.48
2023-04-16T07:56:10.804Z,23.55
2023-04-16T07:58:37.736Z,20.42
2023-04-16T08:01:04.745Z,23.23
2023-04-16T08:05:58.937Z,23.88
2023-04-16T08:08:26.124Z,22.52
2023-04-16T08:10:55.948Z,22.13
2023-04-16T08:13:24.055Z,21.48
2023-04-16T08:15:51.280Z,21.92
2023-04-16T08:18:19.193Z,22.00
2023-04-16T08:20:46.180Z,24.20
2023-04-16T08:23:13.106Z,24.75
2023-04-16T08:25:40.311Z,22.40
2023-04-16T08:28:07.261Z,25.38
2023-04-16T08:30:34.331Z,24.08
2023-04-16T08:33:01.702Z,26.10
2023-04-16T08:35:28.787Z,26.45
2023-04-16T08:37:57.846Z,24.15
2023-04-16T08:40:28.749Z,24.17
2023-04-16T08:42:59.791Z,23.90
2023-04-16T08:45:27.767Z,23.80
2023-04-16T08:47:54.742Z,24.52
2023-04-16T08:50:26.735Z,23.42
2023-04-16T08:52:59.444Z,22.50
2023-04-16T08:55:40.932Z,24.10
2023-04-16T08:58:22.964Z,22.70
2023-04-16T09:00:50.536Z,23.88
2023-04-16T09:03:20.185Z,24.23
2023-04-16T09:05:48.272Z,24.20
2023-04-16T09:08:15.319Z,21.45
2023-04-16T09:10:43.601Z,22.05
2023-04-16T09:13:11.724Z,21.63
2023-04-16T09:15:39.919Z,22.90
2023-04-16T09:18:06.926Z,20.90
2023-04-16T09:20:34.417Z,22.42
2023-04-16T09:23:01.371Z,21.08
2023-04-16T09:25:34.023Z,21.38
2023-04-16T09:28:01.694Z,20.52
2023-04-16T09:30:28.997Z,21.02
2023-04-16T09:33:22.072Z,20.38
2023-04-16T09:35:53.347Z,20.25
2023-04-16T09:38:21.191Z,18.77
2023-04-16T09:40:48.266Z,18.85
2023-04-16T09:43:18.240Z,17.35
2023-04-16T09:45:52.726Z,19.73
2023-04-16T09:48:33.324Z,18.45
2023-04-16T09:51:01.310Z,21.23
2023-04-16T09:53:31.016Z,18.63
2023-04-16T09:56:06.744Z,18.58
2023-04-16T10:01:08.066Z,19.58
2023-04-16T10:03:37.812Z,19.23
2023-04-16T10:06:14.645Z,18.50
2023-04-16T10:08:51.047Z,15.93
2023-04-16T10:11:20.469Z,16.63
2023-04-16T10:13:47.520Z,16.25
2023-04-16T10:16:14.666Z,17.10
2023-04-16T10:18:44.446Z,16.20
2023-04-16T10:21:12.764Z,17.55
2023-04-16T10:23:40.589Z,15.80
2023-04-16T10:26:07.803Z,17.90
2023-04-16T10:28:38.036Z,16.40
2023-04-16T10:31:08.441Z,16.73
2023-04-16T10:33:40.236Z,16.58
2023-04-16T10:36:23.870Z,14.43
2023-04-16T10:38:52.766Z,14.60
2023-04-16T10:41:22.976Z,14.75
2023-04-16T10:43:51.664Z,18.67
2023-04-16T10:46:34.180Z,15.55
2023-04-16T10:49:03.859Z,14.10
2023-04-16T10:51:36.313Z,17.10
2023-04-16T10:54:19.434Z,15.23
2023-04-16T10:56:47.405Z,14.88
2023-04-16T10:59:18.456Z,14.25
2023-04-16T11:01:48.699Z,14.32
2023-04-16T11:04:21.922Z,13.82
2023-04-16T11:07:11.616Z,14.93
2023-04-16T11:09:50.541Z,14.00
2023-04-16T11:12:39.575Z,15.40
2023-04-16T11:15:08.152Z,14.82
2023-04-16T11:17:50.471Z,13.48
2023-04-16T11:20:28.357Z,14.95
2023-04-16T11:22:57.843Z,13.73
2023-04-16T11:25:29.512Z,14.50
2023-04-16T11:27:59.119Z,13.57
2023-04-16T11:30:36.956Z,14.93
2023-04-16T11:33:08.310Z,14.00
2023-04-16T11:35:35.887Z,12.93
2023-04-16T11:38:02.949Z,12.63
2023-04-16T11:40:31.763Z,12.65
2023-04-16T11:43:28.431Z,12.48
2023-04-16T11:48:47.032Z,12.48
2023-04-16T11:51:14.533Z,13.13
2023-04-16T11:53:54.449Z,12.77
2023-04-16T11:56:34.336Z,14.00
2023-04-16T11:59:15.692Z,13.00
2023-04-16T12:01:57.224Z,12.30
2023-04-16T12:04:27.073Z,14.10
2023-04-16T12:07:14.369Z,12.85
2023-04-16T12:09:43.649Z,11.68
2023-04-16T12:12:32.262Z,11.90
2023-04-16T12:15:03.130Z,12.88
2023-04-16T12:17:34.048Z,11.38
2023-04-16T12:20:13.061Z,13.10
2023-04-16T12:22:46.009Z,11.38
2023-04-16T12:25:14.695Z,12.43
2023-04-16T12:27:53.394Z,11.57
2023-04-16T12:30:23.652Z,11.27
2023-04-16T12:32:53.625Z,11.23
2023-04-16T12:35:35.768Z,11.77
2023-04-16T12:38:03.700Z,11.32
2023-04-16T12:40:30.782Z,13.60
2023-04-16T12:42:57.850Z,12.45
2023-04-16T12:45:25.164Z,11.25
2023-04-16T12:47:52.278Z,12.48
2023-04-16T12:50:19.338Z,11.23
2023-04-16T12:52:46.425Z,10.95
2023-04-16T12:55:14.334Z,12.63
2023-04-16T12:57:41.514Z,12.32
2023-04-16T13:00:12.685Z,13.63
2023-04-16T13:02:40.102Z,11.48
2023-04-16T13:05:08.255Z,10.93
2023-04-16T13:07:35.399Z,13.23
2023-04-16T13:10:02.800Z,12.20
2023-04-16T13:12:29.911Z,12.13
2023-04-16T13:14:56.854Z,11.98
2023-04-16T13:17:23.851Z,11.38
2023-04-16T13:19:50.844Z,12.43
2023-04-16T13:22:17.835Z,10.65
2023-04-16T13:24:44.804Z,13.00
2023-04-16T13:27:12.790Z,10.95
2023-04-16T13:29:39.754Z,11.48
2023-04-16T13:32:06.716Z,11.70
2023-04-16T13:34:33.661Z,11.57
2023-04-16T13:37:00.860Z,12.85
2023-04-16T13:39:27.835Z,11.98
2023-04-16T13:41:54.807Z,11.60
2023-04-16T13:44:21.874Z,10.52
2023-04-16T13:46:48.904Z,12.02
2023-04-16T13:49:16.191Z,12.63
2023-04-16T13:51:44.888Z,12.88
2023-04-16T13:54:11.952Z,13.90
2023-04-16T13:56:39.553Z,10.85
2023-04-16T13:59:06.730Z,11.05
2023-04-16T14:01:33.716Z,11.75
2023-04-16T14:04:06.298Z,12.02
2023-04-16T14:06:34.739Z,11.85
2023-04-16T14:09:02.110Z,11.07
2023-04-16T14:11:29.194Z,10.65
2023-04-16T14:13:56.213Z,10.15
2023-04-16T14:16:23.462Z,10.20
2023-04-16T14:18:51.855Z,11.07
2023-04-16T14:21:19.303Z,10.73
2023-04-16T14:23:46.831Z,9.95
2023-04-16T14:26:14.449Z,10.48
2023-04-16T14:28:41.899Z,9.80
2023-04-16T14:31:08.996Z,8.55
2023-04-16T14:33:36.849Z,9.93
2023-04-16T14:36:04.177Z,9.70
2023-04-16T14:38:32.021Z,10.50
2023-04-16T14:41:00.287Z,10.13
2023-04-16T14:43:27.411Z,10.40
2023-04-16T14:45:54.483Z,9.73
2023-04-16T14:48:22.121Z,10.05
2023-04-16T14:50:49.167Z,10.77
2023-04-16T14:53:16.310Z,11.43
2023-04-16T14:55:43.279Z,10.02
2023-04-16T14:58:10.856Z,10.32
2023-04-16T15:00:38.134Z,11.50
2023-04-16T15:03:05.954Z,11.43
2023-04-16T15:05:33.266Z,11.18
2023-04-16T15:08:00.589Z,10.32
2023-04-16T15:10:27.993Z,10.48
2023-04-16T15:12:54.930Z,8.98
2023-04-16T15:15:21.958Z,10.55
2023-04-16T15:17:51.001Z,9.80
2023-04-16T15:20:18.098Z,10.65
2023-04-16T15:22:45.211Z,10.15
2023-04-16T15:25:12.466Z,9.18
2023-04-16T15:27:39.464Z,9.35
2023-04-16T15:30:07.457Z,10.68
2023-04-16T15:32:34.428Z,9.15
2023-04-16T15:35:03.502Z,9.27
2023-04-16T15:37:31.273Z,9.98
2023-04-16T15:39:58.238Z,11.57
2023-04-16T15:42:25.231Z,10.40
2023-04-16T15:44:52.224Z,10.48
2023-04-16T15:47:19.219Z,10.05
2023-04-16T15:49:46.215Z,9.52
2023-04-16T15:52:13.558Z,9.48
2023-04-16T15:54:40.900Z,9.93
2023-04-16T15:57:07.853Z,9.80
2023-04-16T15:59:34.798Z,11.68
2023-04-16T16:02:02.090Z,11.35
2023-04-16T16:04:29.233Z,11.13
2023-04-16T16:06:56.982Z,9.52
2023-04-16T16:09:27.971Z,10.25
2023-04-16T16:11:55.712Z,9.38
2023-04-16T16:14:23.228Z,11.05
2023-04-16T16:16:50.256Z,10.48
2023-04-16T16:19:17.584Z,10.82
2023-04-16T16:21:44.543Z,10.38
2023-04-16T16:24:11.513Z,11.63
2023-04-16T16:26:38.452Z,9.90
2023-04-16T16:29:05.644Z,10.18
2023-04-16T16:31:32.737Z,10.73
2023-04-16T16:33:59.760Z,9.40
2023-04-16T16:36:27.435Z,10.80
2023-04-16T16:38:55.204Z,11.55
2023-04-16T16:41:22.514Z,11.13
2023-04-16T16:43:50.305Z,10.35
2023-04-16T16:46:17.324Z,11.32
2023-04-16T16:48:44.354Z,10.68
2023-04-16T16:51:11.373Z,9.80
2023-04-16T16:53:38.442Z,11.40
2023-04-16T16:56:05.908Z,11.93
2023-04-16T16:58:32.913Z,10.90
2023-04-16T17:00:59.955Z,10.88
2023-04-16T17:03:27.182Z,11.13
2023-04-16T17:05:54.214Z,11.07
2023-04-16T17:08:21.279Z,11.95
2023-04-16T17:10:48.329Z,12.27
2023-04-16T17:13:19.629Z,11.45
2023-04-16T17:15:47.316Z,12.32
2023-04-16T17:18:14.345Z,10.70
2023-04-16T17:20:41.282Z,12.27
2023-04-16T17:23:08.350Z,11.77
2023-04-16T17:25:35.654Z,10.52
2023-04-16T17:28:03.341Z,11.38
2023-04-16T17:30:31.728Z,12.13
2023-04-16T17:32:58.822Z,11.05
2023-04-16T17:35:26.135Z,12.27
2023-04-16T17:37:53.063Z,11.80
2023-04-16T17:40:20.049Z,11.63
2023-04-16T17:42:48.786Z,10.52
2023-04-16T17:45:16.106Z,12.98
2023-04-16T17:47:44.477Z,11.07
2023-04-16T17:50:12.444Z,11.30
2023-04-16T17:52:39.586Z,11.90
2023-04-16T17:55:07.665Z,11.25
2023-04-16T17:57:34.748Z,11.77
2023-04-16T18:00:02.045Z,11.68
2023-04-16T18:02:40.917Z,11.63
2023-04-16T18:05:09.000Z,12.52
2023-04-16T18:07:36.488Z,13.18
2023-04-16T18:10:03.672Z,12.50
2023-04-16T18:12:30.846Z,13.15
2023-04-16T18:14:57.858Z,12.80
2023-04-16T18:17:25.020Z,13.07
2023-04-16T18:19:52.380Z,11.30
2023-04-16T18:22:19.356Z,12.27
2023-04-16T18:24:46.821Z,13.13
2023-04-16T18:27:13.809Z,13.00
2023-04-16T18:29:40.907Z,12.38
2023-04-16T18:32:11.781Z,13.00
2023-04-16T18:34:39.376Z,11.77
2023-04-16T18:37:06.989Z,12.65
2023-04-16T18:39:34.091Z,14.13
2023-04-16T18:42:01.580Z,12.35
2023-04-16T18:44:28.551Z,13.00
2023-04-16T18:46:55.682Z,12.82
2023-04-16T18:49:22.707Z,14.02
2023-04-16T18:51:49.688Z,13.52
2023-04-16T18:54:16.753Z,13.55
2023-04-16T18:56:43.726Z,14.20
2023-04-16T18:59:10.976Z,12.60
2023-04-16T19:01:38.148Z,13.50
2023-04-16T19:04:05.577Z,15.00
2023-04-16T19:06:32.756Z,14.85
2023-04-16T19:08:59.790Z,14.23
2023-04-16T19:11:27.116Z,15.88
2023-04-16T19:13:54.111Z,16.40
2023-04-16T19:16:21.124Z,14.32
2023-04-16T19:18:48.162Z,15.43
2023-04-16T19:21:15.078Z,15.48
2023-04-16T19:23:42.023Z,14.95
2023-04-16T19:26:08.983Z,17.13
2023-04-16T19:28:35.966Z,17.08
2023-04-16T19:31:02.922Z,15.70
2023-04-16T19:33:29.924Z,17.00
2023-04-16T19:35:56.978Z,17.63
2023-04-16T19:38:23.930Z,16.58
2023-04-16T19:40:50.949Z,17.08
2023-04-16T19:43:17.909Z,17.05
2023-04-16T19:45:46.586Z,17.35
2023-04-16T19:48:14.508Z,20.73
2023-04-16T19:50:42.739Z,18.90
2023-04-16T19:53:11.174Z,17.75
2023-04-16T19:55:42.048Z,18.15
2023-04-16T19:58:09.598Z,16.67
2023-04-16T20:00:38.886Z,16.05
2023-04-16T20:03:06.446Z,19.17
2023-04-16T20:05:33.582Z,17.17
2023-04-16T20:08:00.766Z,18.25
2023-04-16T20:10:27.877Z,18.55
2023-04-16T20:12:54.844Z,19.58
2023-04-16T20:15:22.086Z,17.52
2023-04-16T20:17:49.103Z,17.98
2023-04-16T20:20:16.470Z,17.85
2023-04-16T20:22:43.885Z,18.58
2023-04-16T20:25:11.470Z,18.50
2023-04-16T20:27:38.498Z,17.65
2023-04-16T20:30:06.486Z,18.17
2023-04-16T20:32:33.584Z,16.92
2023-04-16T20:35:01.992Z,18.88
2023-04-16T20:37:29.202Z,19.65
2023-04-16T20:39:56.296Z,19.80
2023-04-16T20:42:26.209Z,19.38
2023-04-16T20:44:56.226Z,18.58
2023-04-16T20:47:23.377Z,18.52
2023-04-16T20:49:50.595Z,18.63
2023-04-16T20:52:17.663Z,19.30
2023-04-16T20:54:44.635Z,18.13
2023-04-16T20:57:11.545Z,17.45
2023-04-16T20:59:38.600Z,17.08
2023-04-16T21:02:06.311Z,18.08
2023-04-16T21:04:33.446Z,16.80
2023-04-16T21:07:03.179Z,17.67
2023-04-16T21:09:31.259Z,18.45
2023-04-16T21:11:58.295Z,18.05
2023-04-16T21:14:25.302Z,16.35
2023-04-16T21:16:52.241Z,18.02
2023-04-16T21:19:19.155Z,16.63
2023-04-16T21:21:46.625Z,18.85
2023-04-16T21:24:13.696Z,17.60
2023-04-16T21:26:40.709Z,18.50
2023-04-16T21:29:07.708Z,19.02
2023-04-16T21:31:34.705Z,18.05
2023-04-16T21:34:01.715Z,19.83
2023-04-16T21:36:29.213Z,18.60
2023-04-16T21:38:56.177Z,19.13
2023-04-16T21:41:23.219Z,18.15
2023-04-16T21:43:50.379Z,20.08
2023-04-16T21:46:17.338Z,20.38
2023-04-16T21:48:44.955Z,19.05
2023-04-16T21:51:11.932Z,20.45
2023-04-16T21:53:39.097Z,18.52
2023-04-16T21:56:07.140Z,20.13
2023-04-16T21:58:34.042Z,21.02
2023-04-16T22:01:01.027Z,20.48
2023-04-16T22:03:30.359Z,20.20
2023-04-16T22:06:01.048Z,20.38
2023-04-16T22:08:29.218Z,19.58
2023-04-16T22:11:01.911Z,20.17
2023-04-16T22:13:32.564Z,20.23
2023-04-16T22:16:01.405Z,20.33
2023-04-16T22:18:32.831Z,21.77
2023-04-16T22:21:00.295Z,19.70
2023-04-16T22:23:27.460Z,20.27
2023-04-16T22:25:56.991Z,21.10
2023-04-16T22:28:24.198Z,20.88
2023-04-16T22:30:51.310Z,21.90
2023-04-16T22:33:18.428Z,20.80
2023-04-16T22:35:46.191Z,22.60
2023-04-16T22:38:13.386Z,20.48
2023-04-16T22:40:40.608Z,21.85
2023-04-16T22:43:07.657Z,21.63
2023-04-16T22:45:34.720Z,21.45
2023-04-16T22:48:01.742Z,20.52
2023-04-16T22:50:31.093Z,21.85
2023-04-16T22:52:58.137Z,20.95
2023-04-16T22:55:25.101Z,21.77
2023-04-16T22:57:52.062Z,19.35
2023-04-16T23:00:19.356Z,21.95
2023-04-16T23:02:46.494Z,21.67
2023-04-16T23:05:13.593Z,20.10
2023-04-16T23:07:40.558Z,20.83
2023-04-16T23:10:08.648Z,20.73
2023-04-16T23:12:37.489Z,19.35
2023-04-16T23:15:06.606Z,20.88
2023-04-16T23:17:34.937Z,22.77
2023-04-16T23:20:02.242Z,19.65
2023-04-16T23:22:29.327Z,22.70
2023-04-16T23:24:56.418Z,21.35
2023-04-16T23:27:23.522Z,21.02
2023-04-16T23:29:50.732Z,21.45
2023-04-16T23:32:17.836Z,21.75
2023-04-16T23:34:44.823Z,20.35
2023-04-16T23:37:11.930Z,21.40
2023-04-16T23:39:39.007Z,21.27
2023-04-16T23:42:06.169Z,21.23
2023-04-16T23:44:33.266Z,19.55
2023-04-16T23:47:00.488Z,20.55
2023-04-16T23:49:27.668Z,21.30
2023-04-16T23:51:54.642Z,22.20
2023-04-16T23:54:22.087Z,23.02
2023-04-16T23:56:49.124Z,22.75
2023-04-16T23:59:16.836Z,24.60
